sensor_id;sensor_type;location;lat;lon;timestamp;temperature;humidity
30288;DHT22;17103;48.316;11.558;2024-02-23T00:00:01;12.60;50.80
30288;DHT22;17103;48.316;11.558;2024-02-23T00:02:31;12.60;50.80
30288;DHT22;17103;48.316;11.558;2024-02-23T00:04:57;12.60;50.80
30288;DHT22;17103;48.316;11.558;2024-02-23T00:07:23;12.50;50.80
30288;DHT22;17103;48.316;11.558;2024-02-23T00:09:48;12.40;50.60
30288;DHT22;17103;48.316;11.558;2024-02-23T00:12:14;12.40;50.70
30288;DHT22;17103;48.316;11.558;2024-02-23T00:14:40;12.40;50.60
30288;DHT22;17103;48.316;11.558;2024-02-23T00:17:05;12.30;50.50
30288;DHT22;17103;48.316;11.558;2024-02-23T00:19:31;12.30;50.60
30288;DHT22;17103;48.316;11.558;2024-02-23T00:21:57;12.30;50.60
30288;DHT22;17103;48.316;11.558;2024-02-23T00:24:25;12.20;50.70
30288;DHT22;17103;48.316;11.558;2024-02-23T00:26:51;12.20;50.10
30288;DHT22;17103;48.316;11.558;2024-02-23T00:29:17;12.20;50.00
30288;DHT22;17103;48.316;11.558;2024-02-23T00:31:43;12.80;50.70
30288;DHT22;17103;48.316;11.558;2024-02-23T00:34:10;12.60;50.70
30288;DHT22;17103;48.316;11.558;2024-02-23T00:36:39;12.00;50.00
30288;DHT22;17103;48.316;11.558;2024-02-23T00:39:05;12.50;50.20
30288;DHT22;17103;48.316;11.558;2024-02-23T00:41:33;12.20;50.30
30288;DHT22;17103;48.316;11.558;2024-02-23T00:43:58;11.90;50.30
30288;DHT22;17103;48.316;11.558;2024-02-23T00:46:24;11.90;50.10
30288;DHT22;17103;48.316;11.558;2024-02-23T00:48:50;11.80;49.80
30288;DHT22;17103;48.316;11.558;2024-02-23T00:51:16;12.40;50.30
30288;DHT22;17103;48.316;11.558;2024-02-23T00:53:41;11.70;49.80
30288;DHT22;17103;48.316;11.558;2024-02-23T00:56:07;11.60;50.00
30288;DHT22;17103;48.316;11.558;2024-02-23T00:58:33;11.60;49.70
30288;DHT22;17103;48.316;11.558;2024-02-23T01:00:59;11.50;49.70
30288;DHT22;17103;48.316;11.558;2024-02-23T01:03:25;11.50;49.70
30288;DHT22;17103;48.316;11.558;2024-02-23T01:05:50;11.50;49.50
30288;DHT22;17103;48.316;11.558;2024-02-23T01:08:16;11.40;49.20
30288;DHT22;17103;48.316;11.558;2024-02-23T01:10:42;11.40;49.10
30288;DHT22;17103;48.316;11.558;2024-02-23T01:13:08;11.30;49.30
30288;DHT22;17103;48.316;11.558;2024-02-23T01:15:33;11.20;48.80
30288;DHT22;17103;48.316;11.558;2024-02-23T01:17:59;11.20;48.50
30288;DHT22;17103;48.316;11.558;2024-02-23T01:20:25;11.40;48.90
30288;DHT22;17103;48.316;11.558;2024-02-23T01:22:51;11.10;48.40
30288;DHT22;17103;48.316;11.558;2024-02-23T01:25:17;11.10;48.50
30288;DHT22;17103;48.316;11.558;2024-02-23T01:27:43;11.10;48.20
30288;DHT22;17103;48.316;11.558;2024-02-23T01:30:10;11.00;48.20
30288;DHT22;17103;48.316;11.558;2024-02-23T01:32:36;11.00;48.20
30288;DHT22;17103;48.316;11.558;2024-02-23T01:35:07;11.00;48.00
30288;DHT22;17103;48.316;11.558;2024-02-23T01:37:34;10.90;48.20
30288;DHT22;17103;48.316;11.558;2024-02-23T01:40:00;10.90;48.00
30288;DHT22;17103;48.316;11.558;2024-02-23T01:42:26;10.90;48.10
30288;DHT22;17103;48.316;11.558;2024-02-23T01:44:52;10.90;48.00
30288;DHT22;17103;48.316;11.558;2024-02-23T01:47:18;10.90;47.70
30288;DHT22;17103;48.316;11.558;2024-02-23T01:49:46;10.90;47.90
30288;DHT22;17103;48.316;11.558;2024-02-23T01:52:13;10.90;48.10
30288;DHT22;17103;48.316;11.558;2024-02-23T01:54:40;10.90;48.10
30288;DHT22;17103;48.316;11.558;2024-02-23T01:57:06;10.90;48.60
30288;DHT22;17103;48.316;11.558;2024-02-23T01:59:35;10.90;48.20
30288;DHT22;17103;48.316;11.558;2024-02-23T02:02:03;10.90;48.10
30288;DHT22;17103;48.316;11.558;2024-02-23T02:04:29;10.90;48.30
30288;DHT22;17103;48.316;11.558;2024-02-23T02:06:55;11.00;48.20
30288;DHT22;17103;48.316;11.558;2024-02-23T02:09:21;11.00;48.20
30288;DHT22;17103;48.316;11.558;2024-02-23T02:11:48;10.90;48.20
30288;DHT22;17103;48.316;11.558;2024-02-23T02:14:15;10.80;47.80
30288;DHT22;17103;48.316;11.558;2024-02-23T02:16:40;10.80;47.70
30288;DHT22;17103;48.316;11.558;2024-02-23T02:19:06;10.80;47.80
30288;DHT22;17103;48.316;11.558;2024-02-23T02:21:33;10.70;47.80
30288;DHT22;17103;48.316;11.558;2024-02-23T02:23:59;10.60;47.90
30288;DHT22;17103;48.316;11.558;2024-02-23T02:26:24;10.60;47.90
30288;DHT22;17103;48.316;11.558;2024-02-23T02:28:50;10.60;48.10
30288;DHT22;17103;48.316;11.558;2024-02-23T02:31:16;10.60;48.20
30288;DHT22;17103;48.316;11.558;2024-02-23T02:33:41;10.60;48.20
30288;DHT22;17103;48.316;11.558;2024-02-23T02:36:07;11.10;48.40
30288;DHT22;17103;48.316;11.558;2024-02-23T02:38:33;10.60;48.10
30288;DHT22;17103;48.316;11.558;2024-02-23T02:40:59;10.80;48.30
30288;DHT22;17103;48.316;11.558;2024-02-23T02:43:28;10.60;48.10
30288;DHT22;17103;48.316;11.558;2024-02-23T02:45:53;10.60;48.40
30288;DHT22;17103;48.316;11.558;2024-02-23T02:48:19;10.60;48.50
30288;DHT22;17103;48.316;11.558;2024-02-23T02:50:45;10.60;48.60
30288;DHT22;17103;48.316;11.558;2024-02-23T02:53:11;10.00;48.10
30288;DHT22;17103;48.316;11.558;2024-02-23T02:55:41;10.60;48.80
30288;DHT22;17103;48.316;11.558;2024-02-23T02:58:06;10.60;48.80
30288;DHT22;17103;48.316;11.558;2024-02-23T03:00:32;10.60;49.10
30288;DHT22;17103;48.316;11.558;2024-02-23T03:02:58;10.50;49.20
30288;DHT22;17103;48.316;11.558;2024-02-23T03:05:23;10.50;49.30
30288;DHT22;17103;48.316;11.558;2024-02-23T03:07:49;10.60;49.20
30288;DHT22;17103;48.316;11.558;2024-02-23T03:10:15;10.60;49.40
30288;DHT22;17103;48.316;11.558;2024-02-23T03:12:41;10.50;49.60
30288;DHT22;17103;48.316;11.558;2024-02-23T03:15:07;10.50;49.60
30288;DHT22;17103;48.316;11.558;2024-02-23T03:17:34;10.40;49.70
30288;DHT22;17103;48.316;11.558;2024-02-23T03:19:59;10.40;50.00
30288;DHT22;17103;48.316;11.558;2024-02-23T03:22:25;10.30;50.20
30288;DHT22;17103;48.316;11.558;2024-02-23T03:24:51;10.20;50.30
30288;DHT22;17103;48.316;11.558;2024-02-23T03:27:16;10.10;50.40
30288;DHT22;17103;48.316;11.558;2024-02-23T03:29:42;9.90;51.50
30288;DHT22;17103;48.316;11.558;2024-02-23T03:32:07;9.80;51.80
30288;DHT22;17103;48.316;11.558;2024-02-23T03:34:33;9.70;52.10
30288;DHT22;17103;48.316;11.558;2024-02-23T03:36:59;9.60;52.40
30288;DHT22;17103;48.316;11.558;2024-02-23T03:39:26;9.50;52.70
30288;DHT22;17103;48.316;11.558;2024-02-23T03:41:53;9.30;52.80
30288;DHT22;17103;48.316;11.558;2024-02-23T03:44:19;9.30;53.10
30288;DHT22;17103;48.316;11.558;2024-02-23T03:46:45;9.20;53.60
30288;DHT22;17103;48.316;11.558;2024-02-23T03:49:10;9.10;53.70
30288;DHT22;17103;48.316;11.558;2024-02-23T03:51:37;9.00;54.00
30288;DHT22;17103;48.316;11.558;2024-02-23T03:54:05;9.00;54.30
30288;DHT22;17103;48.316;11.558;2024-02-23T03:56:38;8.80;54.40
30288;DHT22;17103;48.316;11.558;2024-02-23T03:59:04;8.90;54.80
30288;DHT22;17103;48.316;11.558;2024-02-23T04:01:30;8.90;54.70
30288;DHT22;17103;48.316;11.558;2024-02-23T04:03:56;8.80;55.00
30288;DHT22;17103;48.316;11.558;2024-02-23T04:06:21;8.80;55.00
30288;DHT22;17103;48.316;11.558;2024-02-23T04:08:47;8.80;55.20
30288;DHT22;17103;48.316;11.558;2024-02-23T04:11:13;8.80;55.30
30288;DHT22;17103;48.316;11.558;2024-02-23T04:13:38;8.80;55.40
30288;DHT22;17103;48.316;11.558;2024-02-23T04:16:04;8.80;55.50
30288;DHT22;17103;48.316;11.558;2024-02-23T04:18:30;8.80;56.30
30288;DHT22;17103;48.316;11.558;2024-02-23T04:20:56;8.90;55.50
30288;DHT22;17103;48.316;11.558;2024-02-23T04:23:22;8.90;55.70
30288;DHT22;17103;48.316;11.558;2024-02-23T04:25:48;8.90;55.50
30288;DHT22;17103;48.316;11.558;2024-02-23T04:28:13;8.90;55.50
30288;DHT22;17103;48.316;11.558;2024-02-23T04:30:39;9.00;55.00
30288;DHT22;17103;48.316;11.558;2024-02-23T04:33:05;9.00;55.10
30288;DHT22;17103;48.316;11.558;2024-02-23T04:35:30;9.10;55.10
30288;DHT22;17103;48.316;11.558;2024-02-23T04:37:56;9.10;54.80
30288;DHT22;17103;48.316;11.558;2024-02-23T04:40:21;9.10;54.70
30288;DHT22;17103;48.316;11.558;2024-02-23T04:42:47;9.90;55.00
30288;DHT22;17103;48.316;11.558;2024-02-23T04:45:13;9.20;54.30
30288;DHT22;17103;48.316;11.558;2024-02-23T04:47:38;9.20;54.10
30288;DHT22;17103;48.316;11.558;2024-02-23T04:50:06;9.20;53.80
30288;DHT22;17103;48.316;11.558;2024-02-23T04:52:32;9.30;53.80
30288;DHT22;17103;48.316;11.558;2024-02-23T04:54:58;9.20;53.60
30288;DHT22;17103;48.316;11.558;2024-02-23T04:57:23;9.30;53.70
30288;DHT22;17103;48.316;11.558;2024-02-23T04:59:49;9.30;53.70
30288;DHT22;17103;48.316;11.558;2024-02-23T05:02:14;9.30;53.70
30288;DHT22;17103;48.316;11.558;2024-02-23T05:04:41;9.40;53.70
30288;DHT22;17103;48.316;11.558;2024-02-23T05:07:07;9.30;53.30
30288;DHT22;17103;48.316;11.558;2024-02-23T05:09:32;9.40;52.90
30288;DHT22;17103;48.316;11.558;2024-02-23T05:11:58;9.50;52.90
30288;DHT22;17103;48.316;11.558;2024-02-23T05:14:24;9.50;52.90
30288;DHT22;17103;48.316;11.558;2024-02-23T05:16:49;9.50;52.80
30288;DHT22;17103;48.316;11.558;2024-02-23T05:19:15;9.50;52.60
30288;DHT22;17103;48.316;11.558;2024-02-23T05:21:41;9.80;52.40
30288;DHT22;17103;48.316;11.558;2024-02-23T05:24:07;9.60;52.30
30288;DHT22;17103;48.316;11.558;2024-02-23T05:26:33;9.60;52.10
30288;DHT22;17103;48.316;11.558;2024-02-23T05:28:58;9.60;51.90
30288;DHT22;17103;48.316;11.558;2024-02-23T05:31:47;10.20;51.40
30288;DHT22;17103;48.316;11.558;2024-02-23T05:34:13;9.70;51.20
30288;DHT22;17103;48.316;11.558;2024-02-23T05:36:39;10.30;51.00
30288;DHT22;17103;48.316;11.558;2024-02-23T05:39:05;10.20;50.90
30288;DHT22;17103;48.316;11.558;2024-02-23T05:41:33;9.70;51.30
30288;DHT22;17103;48.316;11.558;2024-02-23T05:43:58;9.80;51.30
30288;DHT22;17103;48.316;11.558;2024-02-23T05:46:24;9.80;51.30
30288;DHT22;17103;48.316;11.558;2024-02-23T05:48:50;10.40;50.50
30288;DHT22;17103;48.316;11.558;2024-02-23T05:51:15;9.80;50.60
30288;DHT22;17103;48.316;11.558;2024-02-23T05:53:41;9.80;50.40
30288;DHT22;17103;48.316;11.558;2024-02-23T05:56:07;9.90;50.60
30288;DHT22;17103;48.316;11.558;2024-02-23T05:58:33;9.90;50.20
30288;DHT22;17103;48.316;11.558;2024-02-23T06:00:58;9.90;50.40
30288;DHT22;17103;48.316;11.558;2024-02-23T06:03:24;9.90;50.90
30288;DHT22;17103;48.316;11.558;2024-02-23T06:05:50;9.90;50.80
30288;DHT22;17103;48.316;11.558;2024-02-23T06:08:15;10.00;49.70
30288;DHT22;17103;48.316;11.558;2024-02-23T06:10:41;10.00;49.10
30288;DHT22;17103;48.316;11.558;2024-02-23T06:13:08;10.10;49.20
30288;DHT22;17103;48.316;11.558;2024-02-23T06:15:34;10.10;49.30
30288;DHT22;17103;48.316;11.558;2024-02-23T06:17:59;10.10;49.50
30288;DHT22;17103;48.316;11.558;2024-02-23T06:20:25;10.20;49.30
30288;DHT22;17103;48.316;11.558;2024-02-23T06:22:51;10.20;49.40
30288;DHT22;17103;48.316;11.558;2024-02-23T06:25:16;10.30;49.20
30288;DHT22;17103;48.316;11.558;2024-02-23T06:27:42;10.30;49.00
30288;DHT22;17103;48.316;11.558;2024-02-23T06:30:08;10.30;49.20
30288;DHT22;17103;48.316;11.558;2024-02-23T06:32:35;10.40;49.30
30288;DHT22;17103;48.316;11.558;2024-02-23T06:35:00;11.20;49.90
30288;DHT22;17103;48.316;11.558;2024-02-23T06:37:26;10.40;49.50
30288;DHT22;17103;48.316;11.558;2024-02-23T06:39:52;10.50;49.70
30288;DHT22;17103;48.316;11.558;2024-02-23T06:42:23;10.60;49.60
30288;DHT22;17103;48.316;11.558;2024-02-23T06:44:49;10.60;49.50
30288;DHT22;17103;48.316;11.558;2024-02-23T06:47:18;10.70;49.60
30288;DHT22;17103;48.316;11.558;2024-02-23T06:49:44;10.80;49.60
30288;DHT22;17103;48.316;11.558;2024-02-23T06:52:10;10.90;49.80
30288;DHT22;17103;48.316;11.558;2024-02-23T06:54:36;11.00;49.80
30288;DHT22;17103;48.316;11.558;2024-02-23T06:57:02;11.00;49.40
30288;DHT22;17103;48.316;11.558;2024-02-23T06:59:28;11.10;49.30
30288;DHT22;17103;48.316;11.558;2024-02-23T07:01:54;11.20;49.40
30288;DHT22;17103;48.316;11.558;2024-02-23T07:04:21;11.20;49.30
30288;DHT22;17103;48.316;11.558;2024-02-23T07:06:46;11.30;49.10
30288;DHT22;17103;48.316;11.558;2024-02-23T07:09:12;11.40;48.80
30288;DHT22;17103;48.316;11.558;2024-02-23T07:11:39;11.40;48.50
30288;DHT22;17103;48.316;11.558;2024-02-23T07:14:06;11.40;48.30
30288;DHT22;17103;48.316;11.558;2024-02-23T07:16:38;11.40;48.20
30288;DHT22;17103;48.316;11.558;2024-02-23T07:19:05;11.40;48.10
30288;DHT22;17103;48.316;11.558;2024-02-23T07:21:30;11.30;48.00
30288;DHT22;17103;48.316;11.558;2024-02-23T07:23:56;11.90;48.40
30288;DHT22;17103;48.316;11.558;2024-02-23T07:26:22;11.40;47.90
30288;DHT22;17103;48.316;11.558;2024-02-23T07:28:48;11.10;47.70
30288;DHT22;17103;48.316;11.558;2024-02-23T07:31:14;11.10;47.70
30288;DHT22;17103;48.316;11.558;2024-02-23T07:33:42;11.00;47.60
30288;DHT22;17103;48.316;11.558;2024-02-23T07:36:09;11.00;47.70
30288;DHT22;17103;48.316;11.558;2024-02-23T07:38:38;10.90;47.60
30288;DHT22;17103;48.316;11.558;2024-02-23T07:41:04;10.80;47.60
30288;DHT22;17103;48.316;11.558;2024-02-23T07:43:30;10.80;48.20
30288;DHT22;17103;48.316;11.558;2024-02-23T07:45:55;10.70;47.60
30288;DHT22;17103;48.316;11.558;2024-02-23T07:48:21;10.70;47.60
30288;DHT22;17103;48.316;11.558;2024-02-23T07:50:47;10.60;47.60
30288;DHT22;17103;48.316;11.558;2024-02-23T07:53:12;11.00;47.70
30288;DHT22;17103;48.316;11.558;2024-02-23T07:55:38;10.50;47.30
30288;DHT22;17103;48.316;11.558;2024-02-23T07:58:04;10.50;47.30
30288;DHT22;17103;48.316;11.558;2024-02-23T08:00:29;10.40;47.40
30288;DHT22;17103;48.316;11.558;2024-02-23T08:02:55;10.40;47.50
30288;DHT22;17103;48.316;11.558;2024-02-23T08:05:25;10.40;47.60
30288;DHT22;17103;48.316;11.558;2024-02-23T08:07:50;10.40;47.60
30288;DHT22;17103;48.316;11.558;2024-02-23T08:10:16;10.40;47.70
30288;DHT22;17103;48.316;11.558;2024-02-23T08:12:42;10.40;47.80
30288;DHT22;17103;48.316;11.558;2024-02-23T08:15:08;10.30;47.50
30288;DHT22;17103;48.316;11.558;2024-02-23T08:17:34;10.30;47.30
30288;DHT22;17103;48.316;11.558;2024-02-23T08:19:59;10.30;47.10
30288;DHT22;17103;48.316;11.558;2024-02-23T08:22:25;10.30;47.20
30288;DHT22;17103;48.316;11.558;2024-02-23T08:24:51;10.30;47.30
30288;DHT22;17103;48.316;11.558;2024-02-23T08:27:17;10.70;47.70
30288;DHT22;17103;48.316;11.558;2024-02-23T08:29:42;10.20;47.10
30288;DHT22;17103;48.316;11.558;2024-02-23T08:32:08;10.20;47.20
30288;DHT22;17103;48.316;11.558;2024-02-23T08:34:34;10.20;47.20
30288;DHT22;17103;48.316;11.558;2024-02-23T08:37:00;10.20;47.30
30288;DHT22;17103;48.316;11.558;2024-02-23T08:39:27;10.20;47.30
30288;DHT22;17103;48.316;11.558;2024-02-23T08:41:52;10.20;47.20
30288;DHT22;17103;48.316;11.558;2024-02-23T08:44:19;10.30;47.30
30288;DHT22;17103;48.316;11.558;2024-02-23T08:46:44;10.20;47.20
30288;DHT22;17103;48.316;11.558;2024-02-23T08:49:10;10.30;47.00
30288;DHT22;17103;48.316;11.558;2024-02-23T08:51:35;10.20;46.90
30288;DHT22;17103;48.316;11.558;2024-02-23T08:54:02;10.30;46.90
30288;DHT22;17103;48.316;11.558;2024-02-23T08:56:30;10.30;46.90
30288;DHT22;17103;48.316;11.558;2024-02-23T08:58:58;10.30;46.70
30288;DHT22;17103;48.316;11.558;2024-02-23T09:01:24;10.30;46.80
30288;DHT22;17103;48.316;11.558;2024-02-23T09:03:50;10.30;46.60
30288;DHT22;17103;48.316;11.558;2024-02-23T09:06:15;10.20;46.50
30288;DHT22;17103;48.316;11.558;2024-02-23T09:08:41;10.70;46.50
30288;DHT22;17103;48.316;11.558;2024-02-23T09:11:07;10.50;46.30
30288;DHT22;17103;48.316;11.558;2024-02-23T09:13:32;10.20;46.00
30288;DHT22;17103;48.316;11.558;2024-02-23T09:15:59;10.00;45.90
30288;DHT22;17103;48.316;11.558;2024-02-23T09:18:25;10.10;45.90
30288;DHT22;17103;48.316;11.558;2024-02-23T09:20:50;10.10;45.90
30288;DHT22;17103;48.316;11.558;2024-02-23T09:23:16;10.10;46.10
30288;DHT22;17103;48.316;11.558;2024-02-23T09:25:42;10.10;46.70
30288;DHT22;17103;48.316;11.558;2024-02-23T09:28:07;10.00;46.00
30288;DHT22;17103;48.316;11.558;2024-02-23T09:30:33;10.10;46.00
30288;DHT22;17103;48.316;11.558;2024-02-23T09:32:58;10.10;46.20
30288;DHT22;17103;48.316;11.558;2024-02-23T09:35:24;10.00;45.90
30288;DHT22;17103;48.316;11.558;2024-02-23T09:37:51;10.00;45.90
30288;DHT22;17103;48.316;11.558;2024-02-23T09:40:17;10.00;46.00
30288;DHT22;17103;48.316;11.558;2024-02-23T09:42:43;10.00;45.70
30288;DHT22;17103;48.316;11.558;2024-02-23T09:45:12;10.00;46.00
30288;DHT22;17103;48.316;11.558;2024-02-23T09:47:38;10.00;45.60
30288;DHT22;17103;48.316;11.558;2024-02-23T09:50:05;10.00;45.40
30288;DHT22;17103;48.316;11.558;2024-02-23T09:52:32;10.00;45.50
30288;DHT22;17103;48.316;11.558;2024-02-23T09:54:58;10.00;45.60
30288;DHT22;17103;48.316;11.558;2024-02-23T09:57:27;10.00;45.50
30288;DHT22;17103;48.316;11.558;2024-02-23T09:59:53;10.00;45.60
30288;DHT22;17103;48.316;11.558;2024-02-23T10:02:19;10.10;45.40
30288;DHT22;17103;48.316;11.558;2024-02-23T10:04:44;10.00;45.40
30288;DHT22;17103;48.316;11.558;2024-02-23T10:07:12;10.60;45.70
30288;DHT22;17103;48.316;11.558;2024-02-23T10:09:39;10.10;45.40
30288;DHT22;17103;48.316;11.558;2024-02-23T10:12:06;10.10;45.30
30288;DHT22;17103;48.316;11.558;2024-02-23T10:14:32;10.10;44.70
30288;DHT22;17103;48.316;11.558;2024-02-23T10:16:57;10.10;44.80
30288;DHT22;17103;48.316;11.558;2024-02-23T10:19:24;10.10;44.80
30288;DHT22;17103;48.316;11.558;2024-02-23T10:21:54;10.10;44.50
30288;DHT22;17103;48.316;11.558;2024-02-23T10:24:20;10.10;44.50
30288;DHT22;17103;48.316;11.558;2024-02-23T10:26:46;10.10;44.20
30288;DHT22;17103;48.316;11.558;2024-02-23T10:29:12;10.10;44.40
30288;DHT22;17103;48.316;11.558;2024-02-23T10:31:40;10.60;44.70
30288;DHT22;17103;48.316;11.558;2024-02-23T10:34:09;10.10;44.40
30288;DHT22;17103;48.316;11.558;2024-02-23T10:36:41;10.10;44.30
30288;DHT22;17103;48.316;11.558;2024-02-23T10:39:11;10.10;43.80
30288;DHT22;17103;48.316;11.558;2024-02-23T10:41:43;10.10;43.90
30288;DHT22;17103;48.316;11.558;2024-02-23T10:44:11;10.10;44.10
30288;DHT22;17103;48.316;11.558;2024-02-23T10:46:37;10.20;43.80
30288;DHT22;17103;48.316;11.558;2024-02-23T10:49:03;10.10;43.80
30288;DHT22;17103;48.316;11.558;2024-02-23T10:51:31;10.20;44.20
30288;DHT22;17103;48.316;11.558;2024-02-23T10:53:57;10.20;44.20
30288;DHT22;17103;48.316;11.558;2024-02-23T10:56:23;10.20;44.80
30288;DHT22;17103;48.316;11.558;2024-02-23T10:58:51;10.30;44.40
30288;DHT22;17103;48.316;11.558;2024-02-23T11:01:19;10.30;44.00
30288;DHT22;17103;48.316;11.558;2024-02-23T11:03:46;10.30;43.90
30288;DHT22;17103;48.316;11.558;2024-02-23T11:06:16;10.30;43.90
30288;DHT22;17103;48.316;11.558;2024-02-23T11:08:47;10.30;43.00
30288;DHT22;17103;48.316;11.558;2024-02-23T11:11:16;10.40;43.60
30288;DHT22;17103;48.316;11.558;2024-02-23T11:13:44;10.40;43.10
30288;DHT22;17103;48.316;11.558;2024-02-23T11:16:11;10.40;43.30
30288;DHT22;17103;48.316;11.558;2024-02-23T11:18:39;10.40;43.20
30288;DHT22;17103;48.316;11.558;2024-02-23T11:21:05;10.40;43.20
30288;DHT22;17103;48.316;11.558;2024-02-23T11:23:41;10.50;43.10
30288;DHT22;17103;48.316;11.558;2024-02-23T11:26:12;10.50;42.80
30288;DHT22;17103;48.316;11.558;2024-02-23T11:28:51;10.50;42.90
30288;DHT22;17103;48.316;11.558;2024-02-23T11:31:20;10.50;43.00
30288;DHT22;17103;48.316;11.558;2024-02-23T11:36:32;10.50;41.90
30288;DHT22;17103;48.316;11.558;2024-02-23T11:38:59;10.50;42.00
30288;DHT22;17103;48.316;11.558;2024-02-23T11:41:26;10.50;41.50
30288;DHT22;17103;48.316;11.558;2024-02-23T11:43:53;10.50;41.00
30288;DHT22;17103;48.316;11.558;2024-02-23T11:46:21;10.50;41.80
30288;DHT22;17103;48.316;11.558;2024-02-23T11:48:47;10.40;41.70
30288;DHT22;17103;48.316;11.558;2024-02-23T11:51:19;10.40;42.20
30288;DHT22;17103;48.316;11.558;2024-02-23T11:53:47;10.40;42.10
30288;DHT22;17103;48.316;11.558;2024-02-23T11:56:13;10.40;42.40
30288;DHT22;17103;48.316;11.558;2024-02-23T11:58:40;10.40;42.50
30288;DHT22;17103;48.316;11.558;2024-02-23T12:01:06;10.50;42.30
30288;DHT22;17103;48.316;11.558;2024-02-23T12:03:33;10.50;42.70
30288;DHT22;17103;48.316;11.558;2024-02-23T12:06:00;10.50;42.60
30288;DHT22;17103;48.316;11.558;2024-02-23T12:08:26;10.50;42.80
30288;DHT22;17103;48.316;11.558;2024-02-23T12:10:55;10.60;42.90
30288;DHT22;17103;48.316;11.558;2024-02-23T12:13:22;10.60;42.80
30288;DHT22;17103;48.316;11.558;2024-02-23T12:15:49;10.60;42.80
30288;DHT22;17103;48.316;11.558;2024-02-23T12:18:18;10.60;42.90
30288;DHT22;17103;48.316;11.558;2024-02-23T12:20:47;10.60;42.40
30288;DHT22;17103;48.316;11.558;2024-02-23T12:23:13;10.70;42.80
30288;DHT22;17103;48.316;11.558;2024-02-23T12:25:39;10.70;41.70
30288;DHT22;17103;48.316;11.558;2024-02-23T12:28:05;10.70;42.00
30288;DHT22;17103;48.316;11.558;2024-02-23T12:30:31;10.70;41.80
30288;DHT22;17103;48.316;11.558;2024-02-23T12:33:07;10.60;41.50
30288;DHT22;17103;48.316;11.558;2024-02-23T12:35:34;10.60;41.60
30288;DHT22;17103;48.316;11.558;2024-02-23T12:38:01;10.60;41.70
30288;DHT22;17103;48.316;11.558;2024-02-23T12:40:27;10.50;42.20
30288;DHT22;17103;48.316;11.558;2024-02-23T12:42:53;10.80;42.30
30288;DHT22;17103;48.316;11.558;2024-02-23T12:45:18;10.50;42.30
30288;DHT22;17103;48.316;11.558;2024-02-23T12:47:44;10.50;42.60
30288;DHT22;17103;48.316;11.558;2024-02-23T12:50:10;10.50;42.90
30288;DHT22;17103;48.316;11.558;2024-02-23T12:52:36;10.50;42.70
30288;DHT22;17103;48.316;11.558;2024-02-23T12:55:02;10.60;42.80
30288;DHT22;17103;48.316;11.558;2024-02-23T12:57:28;10.50;42.60
30288;DHT22;17103;48.316;11.558;2024-02-23T12:59:54;10.50;42.70
30288;DHT22;17103;48.316;11.558;2024-02-23T13:02:20;10.40;42.00
30288;DHT22;17103;48.316;11.558;2024-02-23T13:04:46;10.40;42.40
30288;DHT22;17103;48.316;11.558;2024-02-23T13:07:17;10.40;41.90
30288;DHT22;17103;48.316;11.558;2024-02-23T13:09:44;10.30;41.70
30288;DHT22;17103;48.316;11.558;2024-02-23T13:12:10;10.30;41.90
30288;DHT22;17103;48.316;11.558;2024-02-23T13:14:35;10.20;42.10
30288;DHT22;17103;48.316;11.558;2024-02-23T13:17:01;10.20;42.10
30288;DHT22;17103;48.316;11.558;2024-02-23T13:19:27;10.20;42.10
30288;DHT22;17103;48.316;11.558;2024-02-23T13:21:52;10.20;42.30
30288;DHT22;17103;48.316;11.558;2024-02-23T13:24:18;10.20;42.40
30288;DHT22;17103;48.316;11.558;2024-02-23T13:26:44;10.20;42.20
30288;DHT22;17103;48.316;11.558;2024-02-23T13:29:10;10.20;42.10
30288;DHT22;17103;48.316;11.558;2024-02-23T13:31:36;10.20;41.60
30288;DHT22;17103;48.316;11.558;2024-02-23T13:34:03;10.20;41.60
30288;DHT22;17103;48.316;11.558;2024-02-23T13:36:29;10.10;41.70
30288;DHT22;17103;48.316;11.558;2024-02-23T13:38:55;10.50;42.20
30288;DHT22;17103;48.316;11.558;2024-02-23T13:41:21;10.10;42.00
30288;DHT22;17103;48.316;11.558;2024-02-23T13:43:48;10.10;41.70
30288;DHT22;17103;48.316;11.558;2024-02-23T13:46:13;10.00;41.90
30288;DHT22;17103;48.316;11.558;2024-02-23T13:48:39;10.00;42.10
30288;DHT22;17103;48.316;11.558;2024-02-23T13:51:05;10.00;42.10
30288;DHT22;17103;48.316;11.558;2024-02-23T13:53:31;10.00;41.50
30288;DHT22;17103;48.316;11.558;2024-02-23T13:55:58;10.00;41.70
30288;DHT22;17103;48.316;11.558;2024-02-23T13:58:24;10.00;41.80
30288;DHT22;17103;48.316;11.558;2024-02-23T14:00:50;10.00;42.00
30288;DHT22;17103;48.316;11.558;2024-02-23T14:03:18;10.00;42.10
30288;DHT22;17103;48.316;11.558;2024-02-23T14:05:44;10.00;41.80
30288;DHT22;17103;48.316;11.558;2024-02-23T14:08:11;10.00;41.40
30288;DHT22;17103;48.316;11.558;2024-02-23T14:10:37;10.10;41.70
30288;DHT22;17103;48.316;11.558;2024-02-23T14:13:03;10.00;40.90
30288;DHT22;17103;48.316;11.558;2024-02-23T14:15:29;10.10;41.50
30288;DHT22;17103;48.316;11.558;2024-02-23T14:17:54;10.10;41.40
30288;DHT22;17103;48.316;11.558;2024-02-23T14:20:20;10.10;41.40
30288;DHT22;17103;48.316;11.558;2024-02-23T14:22:46;10.10;41.30
30288;DHT22;17103;48.316;11.558;2024-02-23T14:25:12;10.10;41.40
30288;DHT22;17103;48.316;11.558;2024-02-23T14:27:38;10.20;41.60
30288;DHT22;17103;48.316;11.558;2024-02-23T14:30:05;10.60;41.60
30288;DHT22;17103;48.316;11.558;2024-02-23T14:32:31;10.20;41.10
30288;DHT22;17103;48.316;11.558;2024-02-23T14:34:56;10.20;41.00
30288;DHT22;17103;48.316;11.558;2024-02-23T14:37:23;10.30;40.80
30288;DHT22;17103;48.316;11.558;2024-02-23T14:40:00;10.30;40.70
30288;DHT22;17103;48.316;11.558;2024-02-23T14:42:26;10.30;40.60
30288;DHT22;17103;48.316;11.558;2024-02-23T14:44:52;10.30;40.30
30288;DHT22;17103;48.316;11.558;2024-02-23T14:47:17;10.30;40.50
30288;DHT22;17103;48.316;11.558;2024-02-23T14:49:43;10.30;40.50
30288;DHT22;17103;48.316;11.558;2024-02-23T14:52:09;10.30;40.60
30288;DHT22;17103;48.316;11.558;2024-02-23T14:54:36;10.20;40.30
30288;DHT22;17103;48.316;11.558;2024-02-23T14:57:02;10.20;40.10
30288;DHT22;17103;48.316;11.558;2024-02-23T14:59:29;10.20;40.80
30288;DHT22;17103;48.316;11.558;2024-02-23T15:01:54;10.20;40.30
30288;DHT22;17103;48.316;11.558;2024-02-23T15:04:20;10.20;40.20
30288;DHT22;17103;48.316;11.558;2024-02-23T15:06:46;10.40;40.30
30288;DHT22;17103;48.316;11.558;2024-02-23T15:09:20;10.20;40.20
30288;DHT22;17103;48.316;11.558;2024-02-23T15:11:46;10.20;40.40
30288;DHT22;17103;48.316;11.558;2024-02-23T15:14:12;10.20;40.60